Aeroporto :
LOGIN :

Iscrizione | Disclaimer

   EN    FR    IT 

 










Sommario :    VFR   VFR Marginale   IFR   IFR Intensivo   IFR Molto Intensivo
Visibilità : 
Base nubi : 
>= 8 km
>= 3000ft
5 / 8 km
1000 / 3000 ft
1500m / 5 km
500 / 1000 ft
800 / 1500m
200 / 500 ft
< 800m
< 200 ft
Simboli :   Temporali  Nebbia  Neve Forte  Precipitazioni Forti  Vento > 20 kt
SIGMETs :   Varie  Temporali  Ghiacco  Turbolenza  Onda orograficha  Ceneri Vulcaniche






- Altitudine del aeroporto : 650 ft
- Codice IATA : ZJI


LSZL - Locarno

ULTIMO METAR :
  • 141250Z VRB02KT 9999 FEW040 BKN055 20/13 Q1017 RMK BLU

METARs OBSOLETI :
  • 141220Z VRB02KT 9999 BKN040 OVC060 19/13 Q1017 RMK BLU
  • 141150Z 23002KT 9999 BKN040 OVC065 19/13 Q1017 RMK BLU
  • 141120Z VRB02KT 9999 SCT040 OVC065 19/14 Q1017 RMK BLU
  • 141050Z VRB02KT 9999 FEW030 BKN050 19/13 Q1017 RMK BLU
  • 141020Z AUTO VRB02KT 9999NDV R08/1300N R26/P2000U SCT048 19/14 Q1017 RMK
  • 140950Z VRB02KT 9999 FEW025 SCT045 BKN050 19/14 Q1017 RMK BLU
  • 140920Z 29003KT 240V330 9999 FEW025 SCT045 BKN055 19/13 Q1017 RMK BLU
  • 140850Z 29003KT 190V360 9999 SCT045 BKN080 19/13 Q1017 RMK BLU
  • 140820Z VRB02KT 9999 R08/1400N R26/P2000D BKN045 19/13 Q1017 RMK BLU
  • 140750Z 30003KT 250V330 9999 FEW045 BKN055 18/13 Q1017 RMK BLU

TAF TAF LSZL
Valido dal 14 a 12 ore il 14 a 21 ore UTC


141125Z 1412/1421 VRB02KT 9999 FEW030 BKN050
PROB30
TEMPO 1418/1421 SHRA



MetMap, La meteo Aeronautica in un colpo d'occhio ! - Copyright ORBIFLY Dicembre 2007 - Disclaimer

ORBIFLY MET'MAP TEAM :

Programmazione e sviluppo : Alexandra Zaïnal
Concezione : Baudouin d'Aumeries
Supporto tecnico e logistico : Manuel Goepfert
Aiuto : Marc-Olivier Méhu
Aiuto per la traduzione : Arnaldo La Scala




FONTI E CREDITI :

   NOAA